sensor_id;sensor_type;location;lat;lon;timestamp;pressure;altitude;pressure_sealevel;temperature;humidity
79077;BME280;68477;42.698;23.342;2023-07-29T00:00:38;95264.75;;;18.50;55.51
79077;BME280;68477;42.698;23.342;2023-07-29T00:03:04;95261.00;;;18.57;55.93
79077;BME280;68477;42.698;23.342;2023-07-29T00:05:30;95264.19;;;19.03;54.35
79077;BME280;68477;42.698;23.342;2023-07-29T00:07:56;95264.25;;;18.78;55.37
79077;BME280;68477;42.698;23.342;2023-07-29T00:10:21;95264.53;;;18.51;56.13
79077;BME280;68477;42.698;23.342;2023-07-29T00:12:46;95265.59;;;18.00;58.34
79077;BME280;68477;42.698;23.342;2023-07-29T00:15:12;95267.44;;;18.68;55.66
79077;BME280;68477;42.698;23.342;2023-07-29T00:17:38;95273.78;;;18.49;55.54
79077;BME280;68477;42.698;23.342;2023-07-29T00:20:03;95262.63;;;18.33;56.01
79077;BME280;68477;42.698;23.342;2023-07-29T00:22:30;95257.91;;;18.17;57.17
79077;BME280;68477;42.698;23.342;2023-07-29T00:24:57;95259.88;;;18.22;55.95
79077;BME280;68477;42.698;23.342;2023-07-29T00:27:24;95264.41;;;17.96;57.19
79077;BME280;68477;42.698;23.342;2023-07-29T00:29:49;95264.53;;;18.08;56.79
79077;BME280;68477;42.698;23.342;2023-07-29T00:32:15;95262.34;;;18.23;56.42
79077;BME280;68477;42.698;23.342;2023-07-29T00:34:40;95258.44;;;18.44;55.52
79077;BME280;68477;42.698;23.342;2023-07-29T00:37:05;95260.59;;;18.36;56.06
79077;BME280;68477;42.698;23.342;2023-07-29T00:39:32;95258.25;;;18.64;55.24
79077;BME280;68477;42.698;23.342;2023-07-29T00:41:57;95253.19;;;18.38;55.37
79077;BME280;68477;42.698;23.342;2023-07-29T00:44:23;95256.53;;;18.51;55.29
79077;BME280;68477;42.698;23.342;2023-07-29T00:46:50;95251.31;;;18.20;56.81
79077;BME280;68477;42.698;23.342;2023-07-29T00:49:17;95250.06;;;18.22;56.60
79077;BME280;68477;42.698;23.342;2023-07-29T00:51:42;95252.84;;;18.09;56.82
79077;BME280;68477;42.698;23.342;2023-07-29T00:54:08;95248.72;;;17.88;57.44
79077;BME280;68477;42.698;23.342;2023-07-29T00:56:33;95256.16;;;18.04;57.65
79077;BME280;68477;42.698;23.342;2023-07-29T00:58:59;95256.69;;;18.38;55.85
79077;BME280;68477;42.698;23.342;2023-07-29T01:01:28;95253.63;;;17.60;58.82
79077;BME280;68477;42.698;23.342;2023-07-29T01:03:54;95249.34;;;17.59;59.59
79077;BME280;68477;42.698;23.342;2023-07-29T01:06:41;95242.84;;;17.16;60.09
79077;BME280;68477;42.698;23.342;2023-07-29T01:09:30;95241.00;;;18.05;58.33
79077;BME280;68477;42.698;23.342;2023-07-29T01:12:28;95243.72;;;17.98;57.10
79077;BME280;68477;42.698;23.342;2023-07-29T01:15:26;95252.16;;;17.70;59.05
79077;BME280;68477;42.698;23.342;2023-07-29T01:18:04;95247.31;;;17.54;59.81
79077;BME280;68477;42.698;23.342;2023-07-29T01:20:32;95245.50;;;17.23;60.54
79077;BME280;68477;42.698;23.342;2023-07-29T01:22:58;95253.03;;;18.14;57.62
79077;BME280;68477;42.698;23.342;2023-07-29T01:25:24;95255.25;;;17.92;58.28
79077;BME280;68477;42.698;23.342;2023-07-29T01:27:50;95249.81;;;18.06;57.53
79077;BME280;68477;42.698;23.342;2023-07-29T01:30:31;95252.94;;;18.21;57.24
79077;BME280;68477;42.698;23.342;2023-07-29T01:33:25;95246.13;;;17.50;59.50
79077;BME280;68477;42.698;23.342;2023-07-29T01:35:55;95248.88;;;17.37;59.82
79077;BME280;68477;42.698;23.342;2023-07-29T01:38:48;95251.59;;;17.55;60.06
79077;BME280;68477;42.698;23.342;2023-07-29T01:41:15;95240.53;;;17.90;58.64
79077;BME280;68477;42.698;23.342;2023-07-29T01:43:42;95246.56;;;18.22;58.06
79077;BME280;68477;42.698;23.342;2023-07-29T01:46:15;95240.88;;;18.18;57.79
79077;BME280;68477;42.698;23.342;2023-07-29T01:48:41;95240.25;;;17.66;59.40
79077;BME280;68477;42.698;23.342;2023-07-29T01:51:07;95242.69;;;17.74;59.25
79077;BME280;68477;42.698;23.342;2023-07-29T01:53:32;95250.34;;;17.89;58.38
79077;BME280;68477;42.698;23.342;2023-07-29T01:55:58;95247.38;;;18.04;58.03
79077;BME280;68477;42.698;23.342;2023-07-29T01:58:24;95245.31;;;18.06;57.90
79077;BME280;68477;42.698;23.342;2023-07-29T02:00:49;95249.56;;;18.32;56.92
79077;BME280;68477;42.698;23.342;2023-07-29T02:03:15;95250.44;;;18.26;57.18
79077;BME280;68477;42.698;23.342;2023-07-29T02:05:40;95261.16;;;18.19;57.54
79077;BME280;68477;42.698;23.342;2023-07-29T02:08:08;95252.00;;;16.89;62.02
79077;BME280;68477;42.698;23.342;2023-07-29T02:10:34;95255.06;;;16.86;62.50
79077;BME280;68477;42.698;23.342;2023-07-29T02:12:59;95257.22;;;17.40;60.80
79077;BME280;68477;42.698;23.342;2023-07-29T02:15:25;95256.00;;;17.05;61.60
79077;BME280;68477;42.698;23.342;2023-07-29T02:17:50;95254.00;;;16.94;62.11
79077;BME280;68477;42.698;23.342;2023-07-29T02:20:17;95256.34;;;17.15;61.31
79077;BME280;68477;42.698;23.342;2023-07-29T02:22:42;95264.03;;;16.92;62.60
79077;BME280;68477;42.698;23.342;2023-07-29T02:25:08;95260.25;;;16.68;63.80
79077;BME280;68477;42.698;23.342;2023-07-29T02:27:33;95262.41;;;16.91;62.83
79077;BME280;68477;42.698;23.342;2023-07-29T02:29:59;95263.69;;;16.75;63.43
79077;BME280;68477;42.698;23.342;2023-07-29T02:32:24;95254.09;;;17.18;62.10
79077;BME280;68477;42.698;23.342;2023-07-29T02:34:50;95260.06;;;17.14;62.18
79077;BME280;68477;42.698;23.342;2023-07-29T02:37:15;95255.34;;;17.16;61.65
79077;BME280;68477;42.698;23.342;2023-07-29T02:39:41;95255.63;;;17.64;60.59
79077;BME280;68477;42.698;23.342;2023-07-29T02:42:07;95260.72;;;17.03;62.63
79077;BME280;68477;42.698;23.342;2023-07-29T02:44:32;95259.97;;;16.89;63.46
79077;BME280;68477;42.698;23.342;2023-07-29T02:46:58;95257.56;;;16.61;63.84
79077;BME280;68477;42.698;23.342;2023-07-29T02:49:23;95259.19;;;16.62;63.86
79077;BME280;68477;42.698;23.342;2023-07-29T02:51:49;95265.56;;;16.68;64.33
79077;BME280;68477;42.698;23.342;2023-07-29T02:54:14;95264.31;;;17.22;61.53
79077;BME280;68477;42.698;23.342;2023-07-29T02:56:40;95274.31;;;17.58;60.40
79077;BME280;68477;42.698;23.342;2023-07-29T02:59:05;95259.31;;;17.70;59.78
79077;BME280;68477;42.698;23.342;2023-07-29T03:01:31;95264.03;;;17.30;61.29
79077;BME280;68477;42.698;23.342;2023-07-29T03:03:57;95267.22;;;17.07;61.44
79077;BME280;68477;42.698;23.342;2023-07-29T03:06:24;95267.22;;;17.07;61.85
79077;BME280;68477;42.698;23.342;2023-07-29T03:08:49;95276.75;;;16.83;62.50
79077;BME280;68477;42.698;23.342;2023-07-29T03:11:15;95278.78;;;16.87;62.34
79077;BME280;68477;42.698;23.342;2023-07-29T03:13:42;95285.22;;;17.11;60.85
79077;BME280;68477;42.698;23.342;2023-07-29T03:16:15;95275.78;;;16.57;61.65
79077;BME280;68477;42.698;23.342;2023-07-29T03:18:41;95289.31;;;16.16;64.72
79077;BME280;68477;42.698;23.342;2023-07-29T03:21:07;95278.09;;;16.08;65.33
79077;BME280;68477;42.698;23.342;2023-07-29T03:23:34;95276.91;;;15.97;64.83
79077;BME280;68477;42.698;23.342;2023-07-29T03:26:01;95278.69;;;16.16;64.37
79077;BME280;68477;42.698;23.342;2023-07-29T03:28:32;95280.34;;;16.11;64.31
79077;BME280;68477;42.698;23.342;2023-07-29T03:30:58;95283.19;;;16.36;63.16
79077;BME280;68477;42.698;23.342;2023-07-29T03:33:25;95286.06;;;16.01;64.72
79077;BME280;68477;42.698;23.342;2023-07-29T03:35:51;95290.13;;;16.23;63.73
79077;BME280;68477;42.698;23.342;2023-07-29T03:38:16;95287.66;;;16.35;63.07
79077;BME280;68477;42.698;23.342;2023-07-29T03:40:42;95281.38;;;16.10;64.19
79077;BME280;68477;42.698;23.342;2023-07-29T03:43:08;95283.94;;;16.56;62.68
79077;BME280;68477;42.698;23.342;2023-07-29T03:45:35;95285.63;;;16.44;62.77
79077;BME280;68477;42.698;23.342;2023-07-29T03:48:02;95289.94;;;16.18;63.78
79077;BME280;68477;42.698;23.342;2023-07-29T03:50:28;95283.56;;;16.39;62.93
79077;BME280;68477;42.698;23.342;2023-07-29T03:52:54;95279.03;;;16.53;62.40
79077;BME280;68477;42.698;23.342;2023-07-29T03:55:19;95284.13;;;16.61;62.10
79077;BME280;68477;42.698;23.342;2023-07-29T03:57:46;95288.22;;;16.77;61.64
79077;BME280;68477;42.698;23.342;2023-07-29T04:00:11;95282.16;;;16.37;62.79
79077;BME280;68477;42.698;23.342;2023-07-29T04:02:37;95286.81;;;16.54;62.44
79077;BME280;68477;42.698;23.342;2023-07-29T04:05:05;95285.22;;;17.05;60.20
79077;BME280;68477;42.698;23.342;2023-07-29T04:07:35;95284.72;;;17.21;59.88
79077;BME280;68477;42.698;23.342;2023-07-29T04:10:00;95295.47;;;17.39;59.60
79077;BME280;68477;42.698;23.342;2023-07-29T04:12:26;95302.75;;;17.19;59.99
79077;BME280;68477;42.698;23.342;2023-07-29T04:14:52;95301.81;;;17.45;59.52
79077;BME280;68477;42.698;23.342;2023-07-29T04:17:18;95291.88;;;17.27;60.54
79077;BME280;68477;42.698;23.342;2023-07-29T04:19:43;95291.97;;;17.07;61.20
79077;BME280;68477;42.698;23.342;2023-07-29T04:22:08;95303.16;;;17.16;60.83
79077;BME280;68477;42.698;23.342;2023-07-29T04:24:34;95296.09;;;16.97;61.50
79077;BME280;68477;42.698;23.342;2023-07-29T04:26:59;95294.28;;;16.91;61.75
79077;BME280;68477;42.698;23.342;2023-07-29T04:29:25;95294.88;;;16.93;61.51
79077;BME280;68477;42.698;23.342;2023-07-29T04:31:50;95288.84;;;16.66;63.33
79077;BME280;68477;42.698;23.342;2023-07-29T04:34:17;95285.75;;;16.62;63.74
79077;BME280;68477;42.698;23.342;2023-07-29T04:36:43;95285.13;;;16.80;63.22
79077;BME280;68477;42.698;23.342;2023-07-29T04:39:08;95290.44;;;16.80;63.08
79077;BME280;68477;42.698;23.342;2023-07-29T04:41:34;95307.16;;;16.94;62.94
79077;BME280;68477;42.698;23.342;2023-07-29T04:44:02;95300.78;;;17.46;59.95
79077;BME280;68477;42.698;23.342;2023-07-29T04:46:28;95305.72;;;17.74;58.40
79077;BME280;68477;42.698;23.342;2023-07-29T04:48:53;95299.38;;;17.75;58.58
79077;BME280;68477;42.698;23.342;2023-07-29T04:51:19;95297.09;;;17.47;59.75
79077;BME280;68477;42.698;23.342;2023-07-29T04:53:44;95303.09;;;17.67;59.17
79077;BME280;68477;42.698;23.342;2023-07-29T04:56:10;95307.00;;;17.96;58.49
79077;BME280;68477;42.698;23.342;2023-07-29T04:58:36;95301.19;;;18.06;57.61
79077;BME280;68477;42.698;23.342;2023-07-29T05:01:03;95311.66;;;17.76;58.59
79077;BME280;68477;42.698;23.342;2023-07-29T05:03:29;95313.56;;;17.69;58.83
79077;BME280;68477;42.698;23.342;2023-07-29T05:05:54;95314.22;;;17.58;59.43
79077;BME280;68477;42.698;23.342;2023-07-29T05:08:21;95312.53;;;17.63;60.00
79077;BME280;68477;42.698;23.342;2023-07-29T05:10:49;95320.56;;;18.63;56.14
79077;BME280;68477;42.698;23.342;2023-07-29T05:13:15;95315.88;;;18.15;58.75
79077;BME280;68477;42.698;23.342;2023-07-29T05:15:42;95312.75;;;18.86;56.52
79077;BME280;68477;42.698;23.342;2023-07-29T05:18:07;95313.56;;;18.87;56.77
79077;BME280;68477;42.698;23.342;2023-07-29T05:20:33;95320.28;;;18.89;55.95
79077;BME280;68477;42.698;23.342;2023-07-29T05:22:58;95324.00;;;18.20;57.84
79077;BME280;68477;42.698;23.342;2023-07-29T05:25:24;95319.47;;;19.07;55.82
79077;BME280;68477;42.698;23.342;2023-07-29T05:27:50;95317.13;;;18.56;56.46
79077;BME280;68477;42.698;23.342;2023-07-29T05:30:16;95319.59;;;19.31;54.50
79077;BME280;68477;42.698;23.342;2023-07-29T05:32:42;95321.88;;;19.64;53.33
79077;BME280;68477;42.698;23.342;2023-07-29T05:35:07;95323.31;;;19.11;54.67
79077;BME280;68477;42.698;23.342;2023-07-29T05:37:33;95325.88;;;19.36;54.24
79077;BME280;68477;42.698;23.342;2023-07-29T05:39:59;95326.59;;;20.03;52.22
79077;BME280;68477;42.698;23.342;2023-07-29T05:42:24;95322.97;;;19.86;52.69
79077;BME280;68477;42.698;23.342;2023-07-29T05:44:50;95328.16;;;19.51;53.76
79077;BME280;68477;42.698;23.342;2023-07-29T05:47:15;95326.72;;;19.37;54.10
79077;BME280;68477;42.698;23.342;2023-07-29T05:49:41;95330.44;;;19.96;52.32
79077;BME280;68477;42.698;23.342;2023-07-29T05:52:06;95330.38;;;20.38;51.51
79077;BME280;68477;42.698;23.342;2023-07-29T05:54:32;95318.16;;;19.65;53.01
79077;BME280;68477;42.698;23.342;2023-07-29T05:56:58;95326.56;;;19.92;51.92
79077;BME280;68477;42.698;23.342;2023-07-29T05:59:23;95330.09;;;19.62;52.64
79077;BME280;68477;42.698;23.342;2023-07-29T06:01:48;95331.09;;;19.91;52.10
79077;BME280;68477;42.698;23.342;2023-07-29T06:04:14;95325.88;;;20.50;50.79
79077;BME280;68477;42.698;23.342;2023-07-29T06:06:39;95328.78;;;20.48;50.50
79077;BME280;68477;42.698;23.342;2023-07-29T06:09:05;95328.09;;;20.53;50.87
79077;BME280;68477;42.698;23.342;2023-07-29T06:11:30;95322.00;;;21.04;49.67
79077;BME280;68477;42.698;23.342;2023-07-29T06:13:56;95325.00;;;21.19;48.64
79077;BME280;68477;42.698;23.342;2023-07-29T06:16:21;95320.06;;;20.76;50.99
79077;BME280;68477;42.698;23.342;2023-07-29T06:18:47;95324.75;;;21.21;49.60
79077;BME280;68477;42.698;23.342;2023-07-29T06:21:12;95321.78;;;21.74;48.38
79077;BME280;68477;42.698;23.342;2023-07-29T06:23:43;95319.53;;;22.12;46.51
79077;BME280;68477;42.698;23.342;2023-07-29T06:26:08;95315.78;;;21.67;47.20
79077;BME280;68477;42.698;23.342;2023-07-29T06:28:35;95316.00;;;21.37;48.42
79077;BME280;68477;42.698;23.342;2023-07-29T06:31:02;95314.34;;;21.76;47.65
79077;BME280;68477;42.698;23.342;2023-07-29T06:33:27;95311.31;;;21.73;48.23
79077;BME280;68477;42.698;23.342;2023-07-29T06:35:54;95308.19;;;22.55;46.73
79077;BME280;68477;42.698;23.342;2023-07-29T06:38:20;95307.00;;;22.84;45.76
79077;BME280;68477;42.698;23.342;2023-07-29T06:40:49;95299.72;;;21.67;48.44
79077;BME280;68477;42.698;23.342;2023-07-29T06:43:16;95295.91;;;22.42;48.44
79077;BME280;68477;42.698;23.342;2023-07-29T06:45:42;95297.91;;;23.51;45.12
79077;BME280;68477;42.698;23.342;2023-07-29T06:48:08;95289.13;;;23.12;44.03
79077;BME280;68477;42.698;23.342;2023-07-29T06:50:35;95292.50;;;23.02;44.50
79077;BME280;68477;42.698;23.342;2023-07-29T06:53:00;95293.50;;;22.79;45.59
79077;BME280;68477;42.698;23.342;2023-07-29T06:55:26;95292.19;;;22.26;47.14
79077;BME280;68477;42.698;23.342;2023-07-29T06:57:51;95295.91;;;23.19;44.76
79077;BME280;68477;42.698;23.342;2023-07-29T07:00:17;95296.00;;;22.47;46.05
79077;BME280;68477;42.698;23.342;2023-07-29T07:02:42;95297.63;;;23.52;44.59
79077;BME280;68477;42.698;23.342;2023-07-29T07:05:08;95295.44;;;23.44;43.89
79077;BME280;68477;42.698;23.342;2023-07-29T07:07:33;95301.69;;;23.55;44.22
79077;BME280;68477;42.698;23.342;2023-07-29T07:09:59;95296.09;;;24.37;42.07
79077;BME280;68477;42.698;23.342;2023-07-29T07:12:24;95303.31;;;24.69;41.16
79077;BME280;68477;42.698;23.342;2023-07-29T07:14:51;95297.25;;;24.52;41.34
79077;BME280;68477;42.698;23.342;2023-07-29T07:17:17;95302.47;;;24.31;41.98
79077;BME280;68477;42.698;23.342;2023-07-29T07:19:43;95296.28;;;24.31;42.06
79077;BME280;68477;42.698;23.342;2023-07-29T07:22:09;95292.84;;;24.78;41.04
79077;BME280;68477;42.698;23.342;2023-07-29T07:24:34;95297.53;;;24.55;41.22
79077;BME280;68477;42.698;23.342;2023-07-29T07:27:00;95291.06;;;24.93;40.81
79077;BME280;68477;42.698;23.342;2023-07-29T07:29:25;95300.03;;;25.09;40.78
79077;BME280;68477;42.698;23.342;2023-07-29T07:31:52;95293.44;;;25.37;40.11
79077;BME280;68477;42.698;23.342;2023-07-29T07:34:19;95293.19;;;24.91;40.17
79077;BME280;68477;42.698;23.342;2023-07-29T07:36:45;95293.31;;;25.07;40.57
79077;BME280;68477;42.698;23.342;2023-07-29T07:39:10;95286.13;;;24.80;40.41
79077;BME280;68477;42.698;23.342;2023-07-29T07:41:36;95277.63;;;24.93;40.57
79077;BME280;68477;42.698;23.342;2023-07-29T07:44:01;95285.97;;;24.97;40.34
79077;BME280;68477;42.698;23.342;2023-07-29T07:46:28;95284.53;;;25.32;39.91
79077;BME280;68477;42.698;23.342;2023-07-29T07:48:53;95286.41;;;25.31;38.97
79077;BME280;68477;42.698;23.342;2023-07-29T07:51:19;95291.00;;;25.31;38.62
79077;BME280;68477;42.698;23.342;2023-07-29T07:53:44;95288.09;;;25.58;39.19
79077;BME280;68477;42.698;23.342;2023-07-29T07:56:10;95291.09;;;25.66;39.10
79077;BME280;68477;42.698;23.342;2023-07-29T07:58:35;95285.53;;;26.03;37.82
79077;BME280;68477;42.698;23.342;2023-07-29T08:01:04;95281.75;;;25.89;38.50
79077;BME280;68477;42.698;23.342;2023-07-29T08:03:33;95287.16;;;26.20;37.84
79077;BME280;68477;42.698;23.342;2023-07-29T08:05:59;95293.41;;;26.51;37.75
79077;BME280;68477;42.698;23.342;2023-07-29T08:08:26;95291.47;;;26.72;37.27
79077;BME280;68477;42.698;23.342;2023-07-29T08:10:58;95284.16;;;26.87;36.64
79077;BME280;68477;42.698;23.342;2023-07-29T08:13:24;95287.81;;;27.27;35.64
79077;BME280;68477;42.698;23.342;2023-07-29T08:15:51;95288.53;;;26.48;36.48
79077;BME280;68477;42.698;23.342;2023-07-29T08:18:17;95287.66;;;26.88;35.42
79077;BME280;68477;42.698;23.342;2023-07-29T08:20:56;95294.13;;;27.02;35.92
79077;BME280;68477;42.698;23.342;2023-07-29T08:23:29;95290.06;;;26.99;35.97
79077;BME280;68477;42.698;23.342;2023-07-29T08:25:56;95290.59;;;27.12;34.89
79077;BME280;68477;42.698;23.342;2023-07-29T08:28:26;95279.50;;;27.18;35.26
79077;BME280;68477;42.698;23.342;2023-07-29T08:30:52;95278.13;;;27.21;34.70
79077;BME280;68477;42.698;23.342;2023-07-29T08:33:17;95281.19;;;27.69;34.28
79077;BME280;68477;42.698;23.342;2023-07-29T08:35:43;95281.63;;;27.26;33.68
79077;BME280;68477;42.698;23.342;2023-07-29T08:38:08;95273.75;;;27.90;31.98
79077;BME280;68477;42.698;23.342;2023-07-29T08:40:35;95281.41;;;27.72;33.43
79077;BME280;68477;42.698;23.342;2023-07-29T08:43:04;95277.56;;;27.83;33.19
79077;BME280;68477;42.698;23.342;2023-07-29T08:45:34;95272.38;;;27.92;32.77
79077;BME280;68477;42.698;23.342;2023-07-29T08:48:02;95269.53;;;28.12;31.81
79077;BME280;68477;42.698;23.342;2023-07-29T08:50:32;95267.00;;;27.87;31.60
79077;BME280;68477;42.698;23.342;2023-07-29T08:52:59;95256.19;;;27.87;31.36
79077;BME280;68477;42.698;23.342;2023-07-29T08:55:26;95262.75;;;28.49;31.06
79077;BME280;68477;42.698;23.342;2023-07-29T08:57:52;95259.63;;;28.95;30.10
79077;BME280;68477;42.698;23.342;2023-07-29T09:00:19;95258.19;;;28.74;29.56
79077;BME280;68477;42.698;23.342;2023-07-29T09:02:44;95260.28;;;29.29;29.04
79077;BME280;68477;42.698;23.342;2023-07-29T09:05:10;95250.75;;;29.32;28.65
79077;BME280;68477;42.698;23.342;2023-07-29T09:07:36;95249.69;;;29.09;28.78
79077;BME280;68477;42.698;23.342;2023-07-29T09:10:02;95256.66;;;29.39;27.81
79077;BME280;68477;42.698;23.342;2023-07-29T09:12:28;95248.16;;;29.70;25.11
79077;BME280;68477;42.698;23.342;2023-07-29T09:14:53;95249.59;;;29.62;26.91
79077;BME280;68477;42.698;23.342;2023-07-29T09:17:19;95243.81;;;29.69;25.63
79077;BME280;68477;42.698;23.342;2023-07-29T09:19:50;95241.91;;;29.50;24.49
79077;BME280;68477;42.698;23.342;2023-07-29T09:22:20;95239.63;;;30.14;24.86
79077;BME280;68477;42.698;23.342;2023-07-29T09:24:46;95236.25;;;29.66;24.90
79077;BME280;68477;42.698;23.342;2023-07-29T09:27:28;95235.44;;;30.22;24.91
79077;BME280;68477;42.698;23.342;2023-07-29T09:29:56;95230.41;;;30.61;24.71
79077;BME280;68477;42.698;23.342;2023-07-29T09:32:23;95226.56;;;30.49;24.22
79077;BME280;68477;42.698;23.342;2023-07-29T09:34:49;95223.00;;;29.83;25.04
79077;BME280;68477;42.698;23.342;2023-07-29T09:37:21;95227.84;;;30.70;24.27
79077;BME280;68477;42.698;23.342;2023-07-29T09:39:47;95224.59;;;30.68;24.25
79077;BME280;68477;42.698;23.342;2023-07-29T09:42:20;95230.47;;;30.42;24.49
79077;BME280;68477;42.698;23.342;2023-07-29T09:44:48;95221.13;;;30.95;23.19
79077;BME280;68477;42.698;23.342;2023-07-29T09:47:21;95214.66;;;30.77;22.50
79077;BME280;68477;42.698;23.342;2023-07-29T09:49:49;95222.91;;;30.86;23.51
79077;BME280;68477;42.698;23.342;2023-07-29T09:52:15;95211.97;;;31.32;23.74
79077;BME280;68477;42.698;23.342;2023-07-29T09:54:43;95214.16;;;30.89;23.35
79077;BME280;68477;42.698;23.342;2023-07-29T09:57:08;95216.25;;;30.78;22.99
79077;BME280;68477;42.698;23.342;2023-07-29T09:59:34;95210.63;;;30.28;23.83
79077;BME280;68477;42.698;23.342;2023-07-29T10:02:00;95208.25;;;30.54;25.12
79077;BME280;68477;42.698;23.342;2023-07-29T10:04:25;95203.69;;;30.68;23.83
79077;BME280;68477;42.698;23.342;2023-07-29T10:06:52;95203.97;;;31.36;22.26
79077;BME280;68477;42.698;23.342;2023-07-29T10:09:20;95206.31;;;30.74;22.66
79077;BME280;68477;42.698;23.342;2023-07-29T10:11:45;95205.41;;;30.92;23.13
79077;BME280;68477;42.698;23.342;2023-07-29T10:14:11;95200.78;;;31.06;23.52
79077;BME280;68477;42.698;23.342;2023-07-29T10:16:37;95202.47;;;31.43;23.00
79077;BME280;68477;42.698;23.342;2023-07-29T10:19:04;95190.28;;;31.41;22.43
79077;BME280;68477;42.698;23.342;2023-07-29T10:21:30;95184.63;;;31.87;22.75
79077;BME280;68477;42.698;23.342;2023-07-29T10:24:01;95180.25;;;32.00;22.99
79077;BME280;68477;42.698;23.342;2023-07-29T10:26:28;95180.06;;;32.19;22.50
79077;BME280;68477;42.698;23.342;2023-07-29T10:28:59;95177.28;;;31.51;22.96
79077;BME280;68477;42.698;23.342;2023-07-29T10:31:30;95170.34;;;32.04;22.29
79077;BME280;68477;42.698;23.342;2023-07-29T10:33:56;95168.97;;;32.68;21.48
79077;BME280;68477;42.698;23.342;2023-07-29T10:36:22;95165.09;;;33.00;21.23
79077;BME280;68477;42.698;23.342;2023-07-29T10:38:50;95169.19;;;32.81;21.45
79077;BME280;68477;42.698;23.342;2023-07-29T10:41:15;95161.44;;;32.12;21.95
79077;BME280;68477;42.698;23.342;2023-07-29T10:43:41;95159.34;;;32.31;21.55
79077;BME280;68477;42.698;23.342;2023-07-29T10:46:19;95161.81;;;32.19;21.57
79077;BME280;68477;42.698;23.342;2023-07-29T10:48:54;95157.06;;;31.44;22.15
79077;BME280;68477;42.698;23.342;2023-07-29T10:51:37;95156.63;;;32.62;21.46
79077;BME280;68477;42.698;23.342;2023-07-29T10:54:12;95148.13;;;32.10;21.65
79077;BME280;68477;42.698;23.342;2023-07-29T10:56:44;95145.66;;;32.23;21.32
79077;BME280;68477;42.698;23.342;2023-07-29T11:01:39;95141.41;;;33.27;21.04
79077;BME280;68477;42.698;23.342;2023-07-29T11:20:08;95132.31;;;33.40;20.13
79077;BME280;68477;42.698;23.342;2023-07-29T11:22:34;95122.38;;;33.62;20.31
79077;BME280;68477;42.698;23.342;2023-07-29T11:25:00;95131.84;;;33.73;20.15
79077;BME280;68477;42.698;23.342;2023-07-29T11:27:25;95131.97;;;33.33;20.06
79077;BME280;68477;42.698;23.342;2023-07-29T11:29:57;95135.94;;;33.18;20.49
79077;BME280;68477;42.698;23.342;2023-07-29T11:32:22;95132.34;;;32.83;20.55
79077;BME280;68477;42.698;23.342;2023-07-29T11:34:48;95125.53;;;33.20;20.34
79077;BME280;68477;42.698;23.342;2023-07-29T11:37:13;95124.97;;;33.75;19.36
79077;BME280;68477;42.698;23.342;2023-07-29T11:39:43;95128.81;;;34.00;19.55
79077;BME280;68477;42.698;23.342;2023-07-29T11:42:15;95118.84;;;33.70;19.26
79077;BME280;68477;42.698;23.342;2023-07-29T11:44:41;95120.84;;;34.42;19.36
79077;BME280;68477;42.698;23.342;2023-07-29T11:47:11;95115.44;;;34.07;18.51
79077;BME280;68477;42.698;23.342;2023-07-29T11:49:40;95104.03;;;34.14;19.39
79077;BME280;68477;42.698;23.342;2023-07-29T11:52:09;95104.31;;;34.38;18.86
79077;BME280;68477;42.698;23.342;2023-07-29T11:54:38;95104.38;;;34.12;18.74
79077;BME280;68477;42.698;23.342;2023-07-29T11:57:08;95106.03;;;33.53;19.33
79077;BME280;68477;42.698;23.342;2023-07-29T11:59:37;95106.56;;;34.74;18.40
79077;BME280;68477;42.698;23.342;2023-07-29T12:02:09;95101.44;;;34.17;18.72
79077;BME280;68477;42.698;23.342;2023-07-29T12:04:36;95096.31;;;34.16;19.07
79077;BME280;68477;42.698;23.342;2023-07-29T12:07:02;95098.44;;;34.57;18.83
79077;BME280;68477;42.698;23.342;2023-07-29T12:09:28;95093.88;;;34.99;17.87
79077;BME280;68477;42.698;23.342;2023-07-29T12:11:54;95086.63;;;34.36;18.30
79077;BME280;68477;42.698;23.342;2023-07-29T12:14:20;95084.03;;;34.78;18.47
79077;BME280;68477;42.698;23.342;2023-07-29T12:16:48;95090.16;;;34.74;17.57
79077;BME280;68477;42.698;23.342;2023-07-29T12:19:14;95080.31;;;34.82;17.83
79077;BME280;68477;42.698;23.342;2023-07-29T12:21:43;95087.59;;;35.28;18.06
79077;BME280;68477;42.698;23.342;2023-07-29T12:24:09;95073.13;;;35.49;17.61
79077;BME280;68477;42.698;23.342;2023-07-29T12:26:38;95077.78;;;35.07;17.68
79077;BME280;68477;42.698;23.342;2023-07-29T12:29:17;95070.97;;;34.92;17.69
79077;BME280;68477;42.698;23.342;2023-07-29T12:31:45;95086.66;;;35.66;17.58
79077;BME280;68477;42.698;23.342;2023-07-29T12:34:17;95072.00;;;34.99;18.06
79077;BME280;68477;42.698;23.342;2023-07-29T12:36:47;95077.09;;;34.80;18.60
79077;BME280;68477;42.698;23.342;2023-07-29T12:41:49;95071.63;;;35.72;17.31
79077;BME280;68477;42.698;23.342;2023-07-29T12:44:15;95068.53;;;35.62;16.24
79077;BME280;68477;42.698;23.342;2023-07-29T12:46:41;95060.25;;;35.49;15.91
79077;BME280;68477;42.698;23.342;2023-07-29T12:49:07;95066.38;;;35.05;16.05
79077;BME280;68477;42.698;23.342;2023-07-29T12:51:33;95062.13;;;34.57;16.55
79077;BME280;68477;42.698;23.342;2023-07-29T12:53:58;95063.19;;;35.23;16.18
79077;BME280;68477;42.698;23.342;2023-07-29T12:56:24;95054.84;;;35.41;16.11
79077;BME280;68477;42.698;23.342;2023-07-29T12:58:49;95058.84;;;35.97;15.63
79077;BME280;68477;42.698;23.342;2023-07-29T13:01:15;95072.28;;;36.35;15.83
79077;BME280;68477;42.698;23.342;2023-07-29T13:03:47;95065.91;;;36.43;15.75
79077;BME280;68477;42.698;23.342;2023-07-29T13:06:14;95057.16;;;36.05;15.43
79077;BME280;68477;42.698;23.342;2023-07-29T13:08:42;95062.72;;;36.41;15.80
79077;BME280;68477;42.698;23.342;2023-07-29T13:11:08;95056.09;;;36.91;15.13